Huvudsida
METAR-TAF:

METAR-TAF

Flygplatser :

Yap International Airport

Yap, Mikronesien

latitud: 09-29N, longitud: 138-05E, höjd: 28 m

Aktuellt väderrapport

Denna rapport gjordes för 1 timme och 8 minuter sedan, klockan 21:51 UTC
Vind 4 kt varierande vindriktning
Temperatur 29°C
Fuktighet 84%
Tryck 1010 hPa
Sikt: 19.3 km
Få moln på en höjd av 1600 ft
Brutna moln på en höjd av 30000 ft

METAR: PTYA 042151Z VRB04KT 12SM FEW016 BKN300 29/26 A2982 RMK SLP098 T02890264

Tid: 08:59 (22:59 UTC)

Väderprognos

Denna rapport gjordes för 5 timmar och 31 minuter sedan, klockan 17:28 UTC
Prognos gäller från 04 kl. 18 UTC till 05 kl. 18 UTC
Vind 8 kt från nord/nordost
Sikt: 10 km
Spridda moln på en höjd av 1600 ft
Spridda moln på en höjd av 12000 ft
skurar i närheten

TAF: PTYA 041728Z 0418/0518 03008KT P6SM VCSH SCT016 SCT120

Aktuella väderrapporter och prognoser från 4000 flygplatser (METAR- och TAF-rapporter).

De tillgängliga stationerna syns som gula och röda prickar på kartan.

För musen över prickarna för att se namnen på stationerna.

Klicka sedan för att få väderrapporter och prognoser.

För att ändra kartan: Klicka på de gröna knapparna med ett svart kors på för att zooma in; den gröna knappen med ett streck på för att zooma ut; eller på de gröna pilarna för angränsande kartor.


METAR-TAF: